Time;durP1;ratioP1;P1;durP2;ratioP2;P2;SDS_P1;SDS_P2;PMS_P1;PMS_P2;Temp;Humidity;BMP_temperature;BMP_pressure;BME280_temperature;BME280_humidity;BME280_pressure;Samples;Min_cycle;Max_cycle;Signal;HPM_P1;HPM_P2
2024/01/03 00:01:38;;;;;;;81.78;37.10;;;;;;;6.18;88.98;100668.19;4983287;28;20383;-80
2024/01/03 00:04:07;;;;;;;84.78;39.17;;;;;;;6.29;88.19;100671.88;5001043;28;20334;-81
2024/01/03 00:06:35;;;;;;;82.70;39.35;;;;;;;5.53;88.49;100555.84;4982579;28;20822;-81
2024/01/03 00:09:02;;;;;;;95.65;39.65;;;;;;;6.17;89.00;100663.88;5003318;28;20076;-79
2024/01/03 00:11:35;;;;;;;81.65;37.38;;;;;;;6.13;89.48;100675.56;4985740;28;20122;-82
2024/01/03 00:14:29;;;;;;;86.20;38.10;;;;;;;6.30;89.66;100702.56;4983204;28;20049;-82
2024/01/03 00:17:03;;;;;;;72.60;34.53;;;;;;;6.25;89.07;100691.50;4980819;28;20049;-81
2024/01/03 00:19:30;;;;;;;72.03;35.38;;;;;;;6.24;89.58;100690.66;4983507;28;20121;-81
2024/01/03 00:22:02;;;;;;;62.20;31.95;;;;;;;6.17;89.65;100668.31;4981707;28;20054;-82
2024/01/03 00:24:42;;;;;;;69.18;33.70;;;;;;;6.13;88.59;100630.75;4995653;28;20160;-82
2024/01/03 00:27:12;;;;;;;66.53;34.70;;;;;;;6.27;88.53;100657.97;5002783;28;20050;-79
2024/01/03 00:29:52;;;;;;;71.10;34.85;;;;;;;6.17;88.46;100652.47;5000297;28;20080;-81
2024/01/03 00:32:22;;;;;;;58.85;31.17;;;;;;;6.22;88.93;100674.09;5003976;28;20053;-80
2024/01/03 00:34:54;;;;;;;61.47;32.92;;;;;;;6.16;89.18;100675.34;4981980;28;20397;-81
2024/01/03 00:37:27;;;;;;;69.30;34.47;;;;;;;6.07;89.51;100638.22;4994149;28;20133;-82
2024/01/03 00:39:55;;;;;;;68.18;34.00;;;;;;;5.80;89.99;100583.84;4983565;28;20045;-81
2024/01/03 00:42:23;;;;;;;62.25;34.22;;;;;;;6.00;89.45;100608.84;4987853;28;20506;-81
2024/01/03 00:44:50;;;;;;;65.70;32.05;;;;;;;6.16;89.47;100629.69;5001976;28;20053;-82
2024/01/03 00:47:22;;;;;;;63.58;33.00;;;;;;;5.51;89.99;100546.34;4997271;28;20516;-81
2024/01/03 00:49:53;;;;;;;65.03;33.17;;;;;;;6.20;89.30;100652.25;4988560;28;20420;-81
2024/01/03 00:52:25;;;;;;;68.72;35.33;;;;;;;5.96;89.31;100610.84;4963986;28;20053;-82
2024/01/03 00:54:59;;;;;;;68.68;34.50;;;;;;;6.23;89.32;100659.94;4963145;28;20049;-80
2024/01/03 00:57:26;;;;;;;73.95;36.38;;;;;;;6.15;89.01;100628.84;4961899;28;20221;-82
2024/01/03 00:59:56;;;;;;;75.82;37.00;;;;;;;6.22;90.08;100646.91;4960109;28;20417;-79
2024/01/03 01:02:23;;;;;;;78.82;38.42;;;;;;;6.17;89.85;100611.16;4960821;28;20077;-79
2024/01/03 01:04:50;;;;;;;76.55;35.72;;;;;;;6.19;89.86;100617.16;4959852;28;20089;-79
2024/01/03 01:07:17;;;;;;;70.10;36.25;;;;;;;5.75;90.81;100547.28;4980668;28;20053;-80
2024/01/03 01:09:44;;;;;;;73.40;36.00;;;;;;;5.98;90.46;100587.03;4964660;28;20432;-79
2024/01/03 01:12:11;;;;;;;78.57;37.05;;;;;;;6.29;90.62;100627.06;4992622;28;20469;-79
2024/01/03 01:14:38;;;;;;;80.47;36.90;;;;;;;6.28;90.47;100617.44;4996634;28;20045;-79
2024/01/03 01:17:05;;;;;;;76.35;36.42;;;;;;;6.15;90.50;100599.03;4982172;28;20180;-80
2024/01/03 01:19:32;;;;;;;82.57;39.47;;;;;;;6.01;91.16;100589.44;4985709;28;20404;-80
2024/01/03 01:21:59;;;;;;;79.82;37.90;;;;;;;6.30;91.65;100632.22;4980173;28;20050;-81
2024/01/03 01:24:25;;;;;;;75.05;37.78;;;;;;;6.14;92.05;100611.38;4977079;28;20140;-80
2024/01/03 01:26:52;;;;;;;82.63;38.95;;;;;;;5.89;91.67;100538.41;4984788;28;20058;-80
2024/01/03 01:29:19;;;;;;;81.53;37.45;;;;;;;6.24;90.88;100601.03;5000533;28;20099;-80
2024/01/03 01:31:47;;;;;;;83.05;36.40;;;;;;;6.45;91.13;100619.72;4987395;28;20444;-79
2024/01/03 01:34:14;;;;;;;78.43;39.22;;;;;;;5.60;91.56;100484.28;4976335;28;20046;-81
2024/01/03 01:36:42;;;;;;;72.07;37.65;;;;;;;6.27;91.74;100589.41;4985488;28;20418;-80
2024/01/03 01:39:14;;;;;;;73.32;36.75;;;;;;;6.42;91.18;100596.22;4963245;28;20286;-80
2024/01/03 01:41:41;;;;;;;75.07;37.00;;;;;;;6.41;91.21;100586.63;4955570;28;20081;-80
2024/01/03 01:44:08;;;;;;;70.88;35.85;;;;;;;6.19;91.55;100561.81;4993136;28;20390;-80
2024/01/03 01:46:37;;;;;;;63.70;32.63;;;;;;;6.43;91.61;100608.44;5000084;28;20077;-81
2024/01/03 01:49:08;;;;;;;68.22;35.42;;;;;;;6.03;90.88;100518.19;5003211;28;20050;-81
2024/01/03 01:51:36;;;;;;;60.28;32.55;;;;;;;6.44;90.81;100577.66;5003184;28;20053;-79
2024/01/03 01:54:04;;;;;;;65.78;33.20;;;;;;;6.41;90.38;100576.09;4986068;28;20037;-81
2024/01/03 01:56:36;;;;;;;60.53;31.92;;;;;;;6.55;89.96;100594.41;4956411;28;20472;-80
2024/01/03 01:59:05;;;;;;;66.45;33.50;;;;;;;6.67;89.46;100597.09;4963137;28;20069;-80
2024/01/03 02:01:36;;;;;;;55.03;31.83;;;;;;;6.54;89.54;100590.06;4980369;28;20674;-80
2024/01/03 02:04:07;;;;;;;59.53;31.85;;;;;;;6.54;89.87;100568.97;4973960;28;20416;-80
2024/01/03 02:06:35;;;;;;;55.10;30.10;;;;;;;6.50;89.79;100567.50;4989384;28;20045;-79
2024/01/03 02:09:02;;;;;;;54.05;31.15;;;;;;;6.42;89.70;100551.38;5008434;28;20437;-79
2024/01/03 02:11:29;;;;;;;53.92;31.02;;;;;;;6.64;89.86;100588.44;4984065;28;20041;-80
2024/01/03 02:13:56;;;;;;;53.75;29.63;;;;;;;6.60;88.99;100584.34;4999226;28;20088;-80
2024/01/03 02:16:23;;;;;;;48.95;29.60;;;;;;;6.62;88.76;100615.88;4982584;28;20046;-81
2024/01/03 02:18:54;;;;;;;53.65;30.75;;;;;;;6.68;88.45;100619.88;4939229;28;20367;-81
2024/01/03 02:21:28;;;;;;;52.78;30.42;;;;;;;6.51;88.06;100558.63;4986367;28;20154;-81
2024/01/03 02:23:54;;;;;;;54.33;29.98;;;;;;;6.50;87.91;100542.91;4980482;28;20536;-80
2024/01/03 02:26:21;;;;;;;56.85;30.63;;;;;;;6.53;88.18;100580.47;4982061;28;20056;-80
2024/01/03 02:28:56;;;;;;;53.42;29.27;;;;;;;6.54;88.07;100589.22;4965065;28;20053;-80
2024/01/03 02:31:22;;;;;;;53.08;30.52;;;;;;;6.51;88.33;100592.94;4959496;28;20197;-80
2024/01/03 02:33:49;;;;;;;51.47;30.45;;;;;;;6.53;89.00;100585.75;4986274;28;20053;-79
2024/01/03 02:36:19;;;;;;;52.60;28.67;;;;;;;6.55;88.62;100568.03;4967745;28;20143;-81
2024/01/03 02:38:50;;;;;;;49.13;28.77;;;;;;;6.27;88.79;100521.69;4985372;28;20535;-81
2024/01/03 02:41:19;;;;;;;50.28;29.00;;;;;;;6.55;88.65;100591.75;4968082;28;20136;-81
2024/01/03 02:43:47;;;;;;;49.90;28.50;;;;;;;6.57;88.82;100592.47;5004918;28;20152;-80
2024/01/03 02:46:19;;;;;;;52.85;30.40;;;;;;;6.66;88.47;100600.69;4996522;28;20573;-79
2024/01/03 02:48:46;;;;;;;52.28;29.08;;;;;;;6.64;87.97;100606.06;5003960;28;20053;-80
2024/01/03 02:51:22;;;;;;;50.05;27.98;;;;;;;6.07;88.25;100488.00;5003645;28;20046;-81
2024/01/03 02:53:50;;;;;;;52.22;29.08;;;;;;;6.54;89.07;100566.31;4995693;28;20056;-81
2024/01/03 02:56:17;;;;;;;50.75;28.70;;;;;;;6.01;88.63;100510.38;4985671;28;20061;-81
2024/01/03 02:58:43;;;;;;;57.58;31.25;;;;;;;6.58;88.80;100593.34;4971762;28;20543;-80
2024/01/03 03:01:10;;;;;;;50.47;30.20;;;;;;;6.52;88.96;100593.75;4963780;28;20140;-80
2024/01/03 03:03:37;;;;;;;52.20;29.95;;;;;;;6.44;88.24;100560.03;4975054;28;20112;-80
2024/01/03 03:06:04;;;;;;;48.95;28.73;;;;;;;6.64;87.96;100596.34;4968574;28;20053;-79
2024/01/03 03:08:32;;;;;;;56.67;29.45;;;;;;;6.53;88.44;100596.31;4986464;28;20053;-79
2024/01/03 03:11:02;;;;;;;59.47;30.58;;;;;;;6.37;88.75;100570.19;5002636;28;20372;-80
2024/01/03 03:13:34;;;;;;;49.92;28.70;;;;;;;6.37;89.11;100559.63;4999791;28;20073;-81
2024/01/03 03:16:00;;;;;;;47.40;28.20;;;;;;;6.50;88.95;100593.88;5007051;28;20057;-80
2024/01/03 03:18:27;;;;;;;49.95;28.48;;;;;;;6.49;88.64;100563.19;4998279;28;20072;-79
2024/01/03 03:20:54;;;;;;;46.40;28.13;;;;;;;6.60;88.46;100579.06;4987665;28;20115;-81
2024/01/03 03:23:21;;;;;;;49.05;27.83;;;;;;;6.28;88.03;100531.28;4985967;28;20485;-80
2024/01/03 03:25:48;;;;;;;49.70;29.52;;;;;;;6.51;88.33;100566.56;4978527;28;20084;-79
2024/01/03 03:28:14;;;;;;;45.70;28.58;;;;;;;6.61;87.90;100572.00;4987283;28;20060;-80
2024/01/03 03:30:41;;;;;;;52.72;28.13;;;;;;;6.41;87.91;100555.00;4978329;28;20046;-80
2024/01/03 03:33:08;;;;;;;47.85;28.80;;;;;;;6.31;87.62;100527.56;4984763;28;20049;-80
2024/01/03 03:35:35;;;;;;;51.60;29.88;;;;;;;6.60;88.14;100581.72;4978265;28;20501;-80
2024/01/03 03:38:02;;;;;;;51.50;29.23;;;;;;;6.23;88.14;100540.47;5002871;28;20056;-81
2024/01/03 03:40:29;;;;;;;52.90;29.10;;;;;;;6.06;88.48;100503.00;5004473;28;20300;-80
2024/01/03 03:42:56;;;;;;;56.17;29.83;;;;;;;6.48;87.99;100572.06;4985571;28;20324;-81
2024/01/03 03:45:23;;;;;;;54.17;28.65;;;;;;;6.70;87.86;100594.22;4997340;28;20516;-80
2024/01/03 03:47:49;;;;;;;53.45;30.20;;;;;;;6.49;88.14;100568.47;4990843;28;20049;-80
2024/01/03 03:50:16;;;;;;;55.88;30.40;;;;;;;6.59;88.09;100585.28;4981291;28;20049;-80
2024/01/03 03:52:49;;;;;;;59.13;32.15;;;;;;;6.66;87.44;100587.50;4982094;28;20508;-82
2024/01/03 03:55:21;;;;;;;55.40;30.50;;;;;;;6.58;87.78;100575.72;4986785;28;20444;-81
2024/01/03 03:57:48;;;;;;;54.97;31.17;;;;;;;6.60;88.50;100581.72;4990803;28;20050;-81
2024/01/03 04:00:21;;;;;;;56.30;29.30;;;;;;;6.49;89.11;100575.53;4969713;28;20350;-81
2024/01/03 04:02:48;;;;;;;59.20;30.85;;;;;;;6.58;88.68;100599.44;4991571;28;20501;-80
2024/01/03 04:05:15;;;;;;;57.60;31.13;;;;;;;6.56;88.63;100590.78;4983431;28;20267;-80
2024/01/03 04:07:45;;;;;;;55.63;28.95;;;;;;;6.72;88.41;100584.41;4981664;28;20053;-81
2024/01/03 04:10:12;;;;;;;67.15;31.15;;;;;;;6.53;88.46;100563.78;4980327;28;20059;-79
2024/01/03 04:12:39;;;;;;;59.55;29.05;;;;;;;6.39;87.44;100526.09;4994053;28;20057;-81
2024/01/03 04:15:05;;;;;;;56.35;30.80;;;;;;;6.74;87.77;100579.84;4994749;28;20338;-79
2024/01/03 04:17:33;;;;;;;60.85;31.83;;;;;;;6.51;88.41;100561.28;4995824;28;20589;-80
2024/01/03 04:20:01;;;;;;;53.67;32.33;;;;;;;6.61;88.20;100577.28;4973832;28;20053;-82
2024/01/03 04:22:28;;;;;;;59.47;30.83;;;;;;;6.66;88.42;100583.06;4986101;28;20048;-81
2024/01/03 04:24:57;;;;;;;59.80;30.40;;;;;;;6.51;88.53;100571.81;4982976;28;20337;-80
2024/01/03 04:27:25;;;;;;;57.70;30.50;;;;;;;6.50;89.10;100571.94;4994649;28;20046;-81
2024/01/03 04:29:51;;;;;;;52.40;28.52;;;;;;;6.45;88.97;100566.97;4993980;28;20067;-81
2024/01/03 04:32:20;;;;;;;59.17;29.27;;;;;;;6.48;89.60;100556.22;4977954;28;20140;-81
2024/01/03 04:34:47;;;;;;;57.08;28.58;;;;;;;6.57;89.57;100573.16;4996578;28;20140;-80
2024/01/03 04:37:14;;;;;;;58.67;31.85;;;;;;;6.56;89.17;100567.06;4977975;28;20060;-80
2024/01/03 04:39:41;;;;;;;56.47;30.58;;;;;;;6.15;88.87;100499.69;4977783;28;20390;-82
2024/01/03 04:42:11;;;;;;;58.65;31.73;;;;;;;6.63;89.44;100565.66;4987238;28;20064;-82
2024/01/03 04:44:39;;;;;;;54.08;28.83;;;;;;;6.52;89.26;100554.19;5002029;28;20505;-82
2024/01/03 04:47:06;;;;;;;61.03;29.27;;;;;;;6.77;89.27;100592.81;4993558;28;20072;-80
2024/01/03 04:49:34;;;;;;;50.67;27.20;;;;;;;6.02;88.57;100463.78;4989657;28;20500;-81
2024/01/03 04:52:01;;;;;;;56.95;29.48;;;;;;;6.80;88.70;100587.34;4994741;28;20489;-80
2024/01/03 04:54:30;;;;;;;55.47;29.17;;;;;;;6.78;88.80;100589.25;4988696;28;20554;-81
2024/01/03 04:56:57;;;;;;;57.35;29.40;;;;;;;6.53;89.21;100553.22;4995481;28;20409;-80
2024/01/03 04:59:27;;;;;;;64.85;31.70;;;;;;;5.94;88.85;100459.91;4980202;28;20049;-81
2024/01/03 05:01:53;;;;;;;64.30;29.65;;;;;;;6.60;89.25;100544.78;4982905;28;20065;-82
2024/01/03 05:04:27;;;;;;;65.10;32.92;;;;;;;6.46;88.47;100537.03;4982544;28;20049;-81
2024/01/03 05:06:54;;;;;;;55.80;29.55;;;;;;;6.59;88.31;100558.91;4983617;28;20287;-80
2024/01/03 05:09:20;;;;;;;59.08;29.25;;;;;;;6.79;89.01;100601.47;4979786;28;20050;-80
2024/01/03 05:11:47;;;;;;;55.90;28.48;;;;;;;6.68;88.79;100577.69;4986883;28;20052;-81
2024/01/03 05:14:14;;;;;;;56.00;29.60;;;;;;;6.36;88.68;100505.22;4994108;28;20515;-81
2024/01/03 05:16:41;;;;;;;53.65;28.55;;;;;;;6.59;88.52;100553.63;4979918;28;20107;-80
2024/01/03 05:19:08;;;;;;;63.25;33.60;;;;;;;6.87;88.65;100599.13;4958171;28;20489;-82
2024/01/03 05:21:40;;;;;;;50.13;28.25;;;;;;;6.82;88.48;100594.19;4970901;28;20359;-82
2024/01/03 05:24:17;;;;;;;54.05;30.08;;;;;;;6.91;88.47;100595.28;4953605;28;20728;-81
2024/01/03 05:26:43;;;;;;;51.88;29.67;;;;;;;6.91;87.98;100602.38;4973220;28;20481;-81
2024/01/03 05:29:10;;;;;;;56.67;31.05;;;;;;;6.91;88.08;100600.56;4995148;28;20122;-80
2024/01/03 05:31:42;;;;;;;52.55;29.75;;;;;;;6.74;87.72;100556.09;4970834;28;20133;-81
2024/01/03 05:34:10;;;;;;;55.92;29.15;;;;;;;6.86;87.63;100592.16;4976042;28;20091;-81
2024/01/03 05:36:37;;;;;;;51.72;28.33;;;;;;;6.43;87.94;100526.69;4967017;28;20305;-80
2024/01/03 05:39:04;;;;;;;59.20;30.90;;;;;;;6.88;87.79;100595.53;4972506;28;20081;-81
2024/01/03 05:41:31;;;;;;;55.47;30.17;;;;;;;6.95;87.14;100607.31;4976185;28;20424;-80
2024/01/03 05:43:58;;;;;;;51.38;29.75;;;;;;;6.84;87.31;100591.41;4969815;28;20072;-79
2024/01/03 05:46:25;;;;;;;53.35;28.02;;;;;;;6.92;86.87;100610.19;4974464;28;20540;-82
2024/01/03 05:48:54;;;;;;;52.13;28.85;;;;;;;6.79;87.17;100596.19;4971411;28;20042;-81
2024/01/03 05:51:21;;;;;;;46.55;27.63;;;;;;;6.87;86.68;100617.59;4971537;28;20106;-78
2024/01/03 05:53:48;;;;;;;47.75;27.23;;;;;;;6.73;86.47;100628.31;4965891;28;20092;-80
2024/01/03 05:56:16;;;;;;;49.35;27.42;;;;;;;6.69;86.40;100616.28;4977629;28;20049;-83
2024/01/03 05:58:43;;;;;;;44.30;25.75;;;;;;;6.93;85.82;100634.78;4972189;28;20050;-83
2024/01/03 06:01:10;;;;;;;48.38;27.45;;;;;;;6.89;85.64;100649.97;4969819;28;20045;-81
2024/01/03 06:03:37;;;;;;;46.38;26.55;;;;;;;6.81;85.15;100632.06;4973968;28;21464;-79
2024/01/03 06:06:04;;;;;;;44.08;26.38;;;;;;;6.71;85.06;100627.56;4967758;28;20169;-81
2024/01/03 06:08:37;;;;;;;45.85;26.67;;;;;;;6.80;85.32;100650.66;4978842;28;20724;-83
2024/01/03 06:11:04;;;;;;;49.47;26.98;;;;;;;6.84;85.52;100646.81;4976509;28;20130;-81
2024/01/03 06:13:31;;;;;;;44.30;26.98;;;;;;;6.85;85.59;100637.97;4978503;28;20489;-81
2024/01/03 06:15:59;;;;;;;44.92;26.50;;;;;;;6.87;85.30;100633.44;5003373;28;20330;-82
2024/01/03 06:18:28;;;;;;;51.65;26.65;;;;;;;6.60;85.03;100586.13;4987912;28;20088;-82
2024/01/03 06:20:58;;;;;;;46.25;26.75;;;;;;;6.98;84.55;100632.63;4979624;28;20452;-83
2024/01/03 06:23:27;;;;;;;46.35;26.15;;;;;;;6.85;84.41;100622.16;4979142;28;20053;-82
2024/01/03 06:25:53;;;;;;;45.50;26.73;;;;;;;6.87;84.50;100646.63;5007035;28;20293;-81
2024/01/03 06:28:22;;;;;;;40.92;25.63;;;;;;;6.49;84.68;100584.28;5003176;28;20057;-82
2024/01/03 06:30:49;;;;;;;42.85;25.85;;;;;;;6.77;84.93;100617.44;4976854;28;20041;-81
2024/01/03 06:33:16;;;;;;;47.60;26.70;;;;;;;6.83;84.79;100635.44;5002952;28;20562;-82
2024/01/03 06:35:44;;;;;;;41.10;24.73;;;;;;;6.92;84.60;100659.47;4982701;28;20404;-81
2024/01/03 06:38:11;;;;;;;47.20;28.27;;;;;;;6.92;84.88;100648.91;4998710;28;20111;-81
2024/01/03 06:40:38;;;;;;;46.13;27.00;;;;;;;6.93;83.77;100622.41;5005627;28;20068;-81
2024/01/03 06:43:06;;;;;;;39.40;25.50;;;;;;;6.74;84.44;100624.72;4987281;28;20056;-80
2024/01/03 06:45:34;;;;;;;45.15;27.13;;;;;;;6.95;84.34;100646.91;4999036;28;20045;-80
2024/01/03 06:48:07;;;;;;;44.80;26.00;;;;;;;6.55;84.29;100575.06;5006359;28;20060;-81
2024/01/03 06:50:38;;;;;;;39.10;25.15;;;;;;;6.80;83.73;100603.16;4996723;28;20184;-80
2024/01/03 06:53:04;;;;;;;43.95;25.42;;;;;;;6.86;84.14;100626.44;4984669;28;20045;-81
2024/01/03 06:55:33;;;;;;;41.95;26.10;;;;;;;6.50;83.87;100564.84;4980834;28;20296;-81
2024/01/03 06:58:00;;;;;;;42.13;25.27;;;;;;;6.98;84.20;100644.03;4970260;28;20077;-80
2024/01/03 07:00:34;;;;;;;44.90;25.33;;;;;;;7.03;83.76;100647.16;4947972;28;20049;-80
2024/01/03 07:03:07;;;;;;;39.85;25.52;;;;;;;6.95;83.16;100622.31;4954350;28;20268;-80
2024/01/03 07:05:35;;;;;;;41.45;25.58;;;;;;;7.14;83.43;100638.47;4960245;28;20111;-81
2024/01/03 07:08:08;;;;;;;43.17;25.10;;;;;;;7.03;83.23;100631.34;4940427;28;20057;-81
2024/01/03 07:10:58;;;;;;;41.22;24.08;;;;;;;6.73;82.94;100575.53;4949973;28;20823;-81
2024/01/03 07:13:30;;;;;;;40.35;24.48;;;;;;;7.18;82.83;100642.56;4995923;28;20073;-81
2024/01/03 07:15:56;;;;;;;43.65;25.65;;;;;;;6.86;83.04;100597.44;4987596;28;20107;-80
2024/01/03 07:18:25;;;;;;;38.97;25.30;;;;;;;7.27;82.49;100651.59;4987246;28;20103;-81
2024/01/03 07:20:52;;;;;;;42.45;25.52;;;;;;;7.09;81.95;100623.91;4983967;28;20226;-82
2024/01/03 07:23:19;;;;;;;43.03;26.33;;;;;;;7.22;81.93;100657.22;5008798;28;20076;-82
2024/01/03 07:25:47;;;;;;;36.65;23.17;;;;;;;7.11;81.89;100637.84;5002326;28;20057;-80
2024/01/03 07:28:14;;;;;;;38.58;24.70;;;;;;;7.14;81.86;100635.00;4990303;28;20049;-81
2024/01/03 07:30:42;;;;;;;37.28;24.15;;;;;;;7.28;81.47;100671.75;5002673;28;20476;-80
2024/01/03 07:33:12;;;;;;;39.00;24.13;;;;;;;7.24;81.45;100665.88;4985201;28;20041;-80
2024/01/03 07:35:42;;;;;;;40.33;24.73;;;;;;;7.20;81.30;100668.84;4984900;28;20041;-81
2024/01/03 07:38:09;;;;;;;37.67;23.25;;;;;;;6.85;81.09;100606.31;5007523;28;20068;-81
2024/01/03 07:40:36;;;;;;;42.42;25.80;;;;;;;7.33;80.76;100668.78;4985682;28;20045;-81
2024/01/03 07:43:05;;;;;;;40.92;24.35;;;;;;;7.26;80.16;100648.13;4993668;28;20050;-81
2024/01/03 07:45:34;;;;;;;41.20;24.33;;;;;;;7.37;80.04;100662.31;5001209;28;20068;-80
2024/01/03 07:48:01;;;;;;;36.08;24.30;;;;;;;7.24;80.14;100630.72;5001210;28;20415;-80
2024/01/03 07:50:28;;;;;;;44.22;24.35;;;;;;;7.42;79.91;100649.63;4994743;28;20067;-81
2024/01/03 07:52:55;;;;;;;41.50;24.17;;;;;;;7.26;79.02;100621.72;5001770;28;20058;-81
2024/01/03 07:55:23;;;;;;;37.35;24.38;;;;;;;6.55;78.96;100511.78;4996154;28;20140;-81
2024/01/03 07:57:53;;;;;;;35.95;22.52;;;;;;;7.38;79.22;100637.59;4991923;28;20083;-81
2024/01/03 08:00:20;;;;;;;39.63;23.35;;;;;;;7.45;79.33;100647.59;4986624;28;20243;-81
2024/01/03 08:02:49;;;;;;;34.35;21.67;;;;;;;7.57;78.56;100648.44;4983296;28;20057;-80
2024/01/03 08:05:15;;;;;;;34.95;22.05;;;;;;;7.54;77.44;100643.41;4986595;28;20134;-82
2024/01/03 08:07:42;;;;;;;35.38;23.02;;;;;;;7.51;77.76;100646.28;5008897;28;20452;-80
2024/01/03 08:10:12;;;;;;;39.53;21.70;;;;;;;7.57;77.53;100639.69;4959453;28;20359;-80
2024/01/03 08:12:40;;;;;;;36.63;24.20;;;;;;;7.35;76.82;100600.84;5003179;28;20492;-80
2024/01/03 08:15:19;;;;;;;39.13;24.17;;;;;;;7.24;77.24;100575.25;5000179;28;20051;-82
2024/01/03 08:17:46;;;;;;;35.63;22.38;;;;;;;7.51;77.22;100627.81;4983913;28;20133;-82
2024/01/03 08:20:14;;;;;;;37.25;22.92;;;;;;;7.35;77.20;100604.31;5006397;28;20223;-81
2024/01/03 08:22:41;;;;;;;36.42;22.60;;;;;;;7.49;77.19;100630.53;5001037;28;20049;-81
2024/01/03 08:25:10;;;;;;;36.88;22.90;;;;;;;7.56;76.41;100630.09;5005493;28;20064;-82
2024/01/03 08:27:38;;;;;;;35.15;21.58;;;;;;;7.57;76.80;100637.03;5001866;28;20080;-81
2024/01/03 08:30:06;;;;;;;35.97;24.25;;;;;;;7.56;76.65;100638.03;5001267;28;20053;-80
2024/01/03 08:32:36;;;;;;;37.28;22.45;;;;;;;7.51;77.04;100619.03;5004098;28;20050;-79
2024/01/03 08:35:04;;;;;;;34.33;21.77;;;;;;;7.61;76.45;100634.06;5007862;28;20056;-81
2024/01/03 08:37:31;;;;;;;37.10;23.60;;;;;;;7.63;76.93;100636.59;5001060;28;20261;-81
2024/01/03 08:39:58;;;;;;;35.60;22.23;;;;;;;7.18;76.81;100546.66;4997571;28;20034;-81
2024/01/03 08:42:26;;;;;;;33.97;20.83;;;;;;;7.61;76.91;100620.84;4982889;28;20466;-81
2024/01/03 08:44:53;;;;;;;34.10;20.98;;;;;;;7.58;77.36;100610.53;5006698;28;20049;-81
2024/01/03 08:47:21;;;;;;;38.10;20.38;;;;;;;7.54;76.66;100597.66;4991865;28;20108;-80
2024/01/03 08:49:49;;;;;;;36.08;22.35;;;;;;;7.64;77.03;100614.50;4985797;28;20065;-79
2024/01/03 08:52:18;;;;;;;40.53;22.33;;;;;;;6.94;77.33;100491.28;4985802;28;20505;-81
2024/01/03 08:54:45;;;;;;;37.40;21.70;;;;;;;6.74;77.08;100450.56;5003390;28;20413;-79
2024/01/03 08:57:16;;;;;;;35.70;21.80;;;;;;;6.12;77.69;100365.50;5009012;28;20049;-81
2024/01/03 08:59:45;;;;;;;34.42;22.38;;;;;;;7.42;77.82;100558.00;5008544;28;20340;-80
2024/01/03 09:02:13;;;;;;;34.63;22.20;;;;;;;7.17;78.08;100523.88;4992146;28;20057;-81
2024/01/03 09:04:44;;;;;;;36.45;22.90;;;;;;;7.42;77.30;100563.28;4984021;28;20157;-81
2024/01/03 09:07:16;;;;;;;33.53;21.00;;;;;;;7.49;77.45;100563.66;4963016;28;20093;-81
2024/01/03 09:09:48;;;;;;;32.90;19.77;;;;;;;7.92;76.97;100627.28;4978794;28;20060;-81
2024/01/03 09:12:18;;;;;;;31.30;19.30;;;;;;;7.92;76.39;100602.66;4995940;28;20120;-81
2024/01/03 09:14:45;;;;;;;36.83;20.30;;;;;;;8.04;75.96;100627.28;4996715;28;20508;-82
2024/01/03 09:17:16;;;;;;;32.15;20.73;;;;;;;7.74;75.77;100578.47;4990579;28;20434;-82
2024/01/03 09:19:45;;;;;;;35.38;19.75;;;;;;;7.92;75.75;100619.34;4996498;28;20056;-82
2024/01/03 09:22:15;;;;;;;34.90;20.08;;;;;;;7.65;75.34;100555.41;5007377;28;20053;-82
2024/01/03 09:24:42;;;;;;;29.10;19.65;;;;;;;7.98;75.82;100614.53;5002616;28;20520;-79
2024/01/03 09:27:09;;;;;;;33.38;20.77;;;;;;;8.02;75.34;100608.06;4994401;28;20054;-81
2024/01/03 09:29:35;;;;;;;31.67;20.92;;;;;;;8.01;74.80;100596.66;4989928;28;20056;-80
2024/01/03 09:32:03;;;;;;;31.70;20.35;;;;;;;8.10;74.86;100624.97;4985575;28;20573;-81
2024/01/03 09:34:39;;;;;;;28.90;20.48;;;;;;;7.97;75.54;100605.78;5001048;28;20216;-81
2024/01/03 09:37:06;;;;;;;34.40;19.92;;;;;;;8.14;74.97;100609.75;4996150;28;20053;-81
2024/01/03 09:39:33;;;;;;;32.33;20.08;;;;;;;8.00;74.82;100594.13;4991353;28;20057;-81
2024/01/03 09:42:01;;;;;;;34.08;20.92;;;;;;;8.33;74.89;100636.41;4998018;28;20072;-82
2024/01/03 09:44:33;;;;;;;30.13;18.42;;;;;;;8.26;75.07;100615.88;5003253;28;20581;-81
2024/01/03 09:47:00;;;;;;;31.38;20.45;;;;;;;8.29;73.83;100611.16;5011734;28;20072;-81
2024/01/03 09:49:28;;;;;;;32.45;19.02;;;;;;;8.37;74.07;100620.28;5011230;28;20068;-82
2024/01/03 09:51:56;;;;;;;30.92;19.80;;;;;;;8.55;73.81;100637.41;5009948;28;20056;-82
2024/01/03 09:54:23;;;;;;;31.35;20.20;;;;;;;8.53;74.04;100639.31;4995203;28;20103;-79
2024/01/03 09:56:51;;;;;;;32.33;21.20;;;;;;;8.48;74.33;100626.44;4993966;28;20048;-80
2024/01/03 09:59:19;;;;;;;35.97;21.25;;;;;;;8.57;73.97;100635.47;4985621;28;20167;-82
2024/01/03 10:01:58;;;;;;;34.63;20.63;;;;;;;8.65;74.03;100638.34;4983972;28;20863;-80
2024/01/03 10:04:26;;;;;;;32.38;20.55;;;;;;;8.66;73.83;100644.47;4981476;28;20496;-82
2024/01/03 10:06:57;;;;;;;35.22;20.67;;;;;;;8.64;73.52;100634.03;4989125;28;20131;-81
2024/01/03 10:09:41;;;;;;;27.52;19.40;;;;;;;8.65;72.88;100632.22;4980963;28;20048;-81
2024/01/03 10:12:20;;;;;;;32.67;21.17;;;;;;;8.67;73.88;100644.34;4995080;28;20132;-81
2024/01/03 10:14:49;;;;;;;36.47;22.20;;;;;;;8.56;73.53;100612.59;4997732;28;20125;-82
2024/01/03 10:17:22;;;;;;;39.10;23.17;;;;;;;8.44;73.47;100587.97;5001108;28;20054;-83
2024/01/03 10:19:49;;;;;;;33.25;22.58;;;;;;;8.64;73.82;100619.91;4987055;28;20068;-83
2024/01/03 10:22:19;;;;;;;41.70;22.02;;;;;;;8.45;73.61;100580.91;4993457;28;20049;-79
2024/01/03 10:24:46;;;;;;;36.70;22.77;;;;;;;8.89;73.73;100648.75;4991977;28;20045;-81
2024/01/03 10:27:13;;;;;;;36.17;23.27;;;;;;;8.76;73.78;100619.78;5002196;28;20559;-80
2024/01/03 10:29:40;;;;;;;36.05;23.10;;;;;;;8.76;73.64;100601.28;4995728;28;20136;-82
2024/01/03 10:32:10;;;;;;;35.38;22.48;;;;;;;8.99;73.06;100609.13;4997927;28;20316;-81
2024/01/03 10:34:37;;;;;;;36.22;22.75;;;;;;;9.07;72.81;100627.03;4996176;28;20096;-81
2024/01/03 10:37:04;;;;;;;44.63;23.75;;;;;;;8.92;72.81;100603.50;5001267;28;20102;-81
2024/01/03 10:39:32;;;;;;;35.05;23.13;;;;;;;9.09;73.07;100615.34;5002412;28;20053;-81
2024/01/03 10:42:02;;;;;;;38.25;24.77;;;;;;;9.22;73.10;100620.47;5002463;28;20508;-80
2024/01/03 10:44:31;;;;;;;37.45;24.60;;;;;;;9.23;73.50;100616.03;5000370;28;20088;-80
2024/01/03 10:46:57;;;;;;;37.03;24.20;;;;;;;9.27;73.55;100613.00;5000506;28;20461;-80
2024/01/03 10:49:27;;;;;;;43.28;23.85;;;;;;;9.30;73.42;100610.09;5003042;28;20289;-81
2024/01/03 10:52:01;;;;;;;39.17;23.83;;;;;;;9.32;73.18;100596.69;5004178;28;20493;-80
2024/01/03 10:54:41;;;;;;;34.45;21.40;;;;;;;9.45;72.90;100613.25;4992066;28;20045;-80
2024/01/03 10:57:17;;;;;;;38.58;23.38;;;;;;;9.47;73.02;100613.97;4981535;28;20195;-83
2024/01/03 11:00:08;;;;;;;40.25;23.92;;;;;;;9.54;72.31;100625.75;4996272;28;20050;-81
2024/01/03 11:02:41;;;;;;;37.15;23.90;;;;;;;9.63;71.92;100619.63;4983842;28;20057;-81
2024/01/03 11:05:30;;;;;;;33.08;21.33;;;;;;;9.68;71.03;100621.06;4992812;28;20473;-81
2024/01/03 11:08:04;;;;;;;33.95;22.02;;;;;;;9.69;70.49;100612.16;4975853;28;20061;-82
2024/01/03 11:10:51;;;;;;;41.70;23.52;;;;;;;9.78;71.33;100604.25;4984901;28;20107;-82
2024/01/03 11:13:29;;;;;;;38.63;24.17;;;;;;;9.72;70.69;100594.16;4994913;28;20406;-81
2024/01/03 11:16:02;;;;;;;34.60;23.98;;;;;;;9.67;71.63;100587.59;4977040;28;20045;-80
2024/01/03 11:18:41;;;;;;;34.72;23.65;;;;;;;9.74;70.93;100599.34;4976420;28;20304;-81
2024/01/03 11:21:23;;;;;;;35.65;23.63;;;;;;;9.77;71.21;100591.13;4998829;28;20140;-80
2024/01/03 11:23:51;;;;;;;;;;;;;;;9.78;71.02;100590.16;5000272;28;20053;-81
2024/01/03 11:26:52;;;;;;;31.33;22.23;;;;;;;9.80;71.22;100588.22;4973927;28;20176;-80